createdAt,value
2024-05-09T00:00:10.414Z,41.44
2024-05-09T00:01:07.398Z,41.37
2024-05-09T00:02:07.378Z,41.32
2024-05-09T00:03:07.742Z,41.27
2024-05-09T00:04:07.354Z,41.25
2024-05-09T00:05:07.484Z,41.22
2024-05-09T00:06:07.412Z,41.18
2024-05-09T00:07:07.367Z,41.17
2024-05-09T00:08:07.418Z,41.15
2024-05-09T00:09:07.339Z,41.17
2024-05-09T00:10:11.772Z,41.13
2024-05-09T00:11:07.453Z,41.16
2024-05-09T00:12:07.488Z,41.14
2024-05-09T00:13:07.784Z,41.13
2024-05-09T00:14:07.429Z,41.13
2024-05-09T00:15:07.377Z,41.10
2024-05-09T00:16:07.372Z,41.09
2024-05-09T00:17:07.567Z,41.08
2024-05-09T00:18:08.159Z,41.09
2024-05-09T00:19:07.509Z,41.08
2024-05-09T00:20:14.327Z,41.05
2024-05-09T00:21:07.530Z,41.09
2024-05-09T00:22:07.389Z,41.09
2024-05-09T00:23:07.982Z,41.09
2024-05-09T00:24:07.383Z,41.06
2024-05-09T00:25:07.386Z,41.05
2024-05-09T00:26:07.449Z,41.06
2024-05-09T00:27:08.461Z,41.06
2024-05-09T00:28:07.506Z,41.05
2024-05-09T00:29:07.548Z,41.07
2024-05-09T00:30:09.486Z,41.04
2024-05-09T00:31:07.569Z,41.04
2024-05-09T00:32:07.675Z,41.07
2024-05-09T00:33:09.096Z,41.07
2024-05-09T00:34:07.658Z,41.05
2024-05-09T00:35:07.687Z,41.03
2024-05-09T00:36:07.560Z,41.04
2024-05-09T00:37:07.572Z,41.04
2024-05-09T00:38:07.666Z,41.03
2024-05-09T00:39:07.567Z,41.02
2024-05-09T00:40:14.872Z,41.00
2024-05-09T00:41:07.646Z,41.03
2024-05-09T00:42:07.573Z,41.00
2024-05-09T00:43:07.622Z,41.02
2024-05-09T00:44:07.651Z,41.03
2024-05-09T00:45:07.581Z,41.00
2024-05-09T00:46:07.680Z,41.02
2024-05-09T00:47:07.934Z,41.01
2024-05-09T00:48:09.022Z,40.99
2024-05-09T00:49:07.666Z,41.02
2024-05-09T00:50:10.085Z,40.99
2024-05-09T00:51:07.768Z,41.02
2024-05-09T00:52:07.593Z,41.02
2024-05-09T00:53:07.622Z,40.98
2024-05-09T00:54:07.603Z,40.96
2024-05-09T00:55:07.606Z,40.96
2024-05-09T00:56:07.679Z,40.99
2024-05-09T00:57:07.622Z,40.98
2024-05-09T00:58:07.627Z,40.98
2024-05-09T00:59:07.635Z,40.97
2024-05-09T01:00:15.035Z,40.97
2024-05-09T01:01:07.631Z,40.97
2024-05-09T01:02:07.739Z,40.96
2024-05-09T01:03:08.233Z,40.93
2024-05-09T01:04:07.774Z,40.95
2024-05-09T01:05:07.707Z,40.95
2024-05-09T01:06:07.609Z,40.95
2024-05-09T01:07:07.604Z,40.93
2024-05-09T01:08:07.799Z,40.96
2024-05-09T01:09:07.612Z,40.95
2024-05-09T01:10:14.077Z,40.96
2024-05-09T01:11:07.703Z,40.94
2024-05-09T01:12:07.728Z,40.96
2024-05-09T01:13:07.801Z,40.94
2024-05-09T01:14:07.633Z,40.92
2024-05-09T01:15:07.615Z,40.90
2024-05-09T01:16:07.609Z,40.93
2024-05-09T01:17:07.692Z,40.92
2024-05-09T01:18:07.981Z,40.89
2024-05-09T01:19:07.675Z,40.91
2024-05-09T01:20:10.873Z,40.89
2024-05-09T01:21:07.651Z,40.90
2024-05-09T01:22:07.647Z,40.88
2024-05-09T01:23:07.774Z,40.90
2024-05-09T01:24:07.640Z,40.91
2024-05-09T01:25:07.631Z,40.89
2024-05-09T01:26:07.712Z,40.87
2024-05-09T01:27:07.637Z,40.88
2024-05-09T01:28:07.725Z,40.87
2024-05-09T01:29:07.669Z,40.86
2024-05-09T01:30:09.667Z,40.88
2024-05-09T01:31:07.652Z,40.90
2024-05-09T01:32:07.682Z,40.89
2024-05-09T01:33:09.614Z,40.88
2024-05-09T01:34:07.654Z,40.88
2024-05-09T01:35:07.687Z,40.87
2024-05-09T01:36:07.655Z,40.90
2024-05-09T01:37:07.648Z,40.87
2024-05-09T01:38:07.821Z,40.86
2024-05-09T01:39:07.647Z,40.85
2024-05-09T01:40:12.054Z,40.86
2024-05-09T01:41:07.720Z,40.87
2024-05-09T01:42:07.654Z,40.85
2024-05-09T01:43:08.140Z,40.85
2024-05-09T01:44:07.659Z,40.85
2024-05-09T01:45:07.646Z,40.82
2024-05-09T01:46:07.658Z,40.85
2024-05-09T01:47:07.713Z,40.83
2024-05-09T01:48:07.836Z,40.83
2024-05-09T01:49:07.964Z,40.86
2024-05-09T01:50:10.724Z,40.81
2024-05-09T01:51:08.079Z,40.84
2024-05-09T01:52:07.865Z,40.82
2024-05-09T01:53:08.013Z,40.81
2024-05-09T01:54:07.878Z,40.82
2024-05-09T01:55:07.873Z,40.83
2024-05-09T01:56:08.017Z,40.83
2024-05-09T01:57:07.878Z,40.80
2024-05-09T01:58:07.879Z,40.79
2024-05-09T01:59:07.917Z,40.81
2024-05-09T02:00:08.091Z,40.80
2024-05-09T02:01:07.943Z,40.78
2024-05-09T02:02:07.970Z,40.80
2024-05-09T02:03:08.109Z,40.82
2024-05-09T02:04:08.242Z,40.78
2024-05-09T02:05:08.001Z,40.76
2024-05-09T02:06:08.094Z,40.77
2024-05-09T02:07:07.937Z,40.78
2024-05-09T02:08:07.999Z,40.78
2024-05-09T02:09:07.913Z,40.78
2024-05-09T02:10:13.990Z,40.78
2024-05-09T02:11:08.030Z,40.80
2024-05-09T02:12:08.035Z,40.78
2024-05-09T02:13:07.933Z,40.75
2024-05-09T02:14:08.036Z,40.78
2024-05-09T02:15:07.983Z,40.76
2024-05-09T02:16:07.991Z,40.75
2024-05-09T02:17:08.117Z,40.74
2024-05-09T02:18:08.415Z,40.75
2024-05-09T02:19:08.060Z,40.75
2024-05-09T02:20:13.112Z,40.76
2024-05-09T02:21:08.103Z,40.75
2024-05-09T02:22:08.016Z,40.73
2024-05-09T02:23:08.008Z,40.73
2024-05-09T02:24:08.039Z,40.74
2024-05-09T02:25:08.031Z,40.74
2024-05-09T02:26:08.128Z,40.72
2024-05-09T02:27:08.045Z,40.73
2024-05-09T02:28:08.060Z,40.74
2024-05-09T02:29:08.076Z,40.75
2024-05-09T02:30:18.261Z,40.72
2024-05-09T02:31:08.057Z,40.75
2024-05-09T02:32:08.147Z,40.76
2024-05-09T02:33:08.977Z,40.72
2024-05-09T02:34:08.149Z,40.74
2024-05-09T02:35:08.066Z,40.72
2024-05-09T02:36:08.050Z,40.71
2024-05-09T02:37:08.046Z,40.71
2024-05-09T02:38:08.160Z,40.71
2024-05-09T02:39:08.112Z,40.71
2024-05-09T02:40:11.595Z,40.70
2024-05-09T02:41:08.198Z,40.72
2024-05-09T02:42:08.103Z,40.74
2024-05-09T02:43:09.323Z,40.69
2024-05-09T02:44:08.148Z,40.71
2024-05-09T02:45:08.112Z,40.69
2024-05-09T02:46:08.114Z,40.70
2024-05-09T02:47:08.276Z,40.70
2024-05-09T02:48:08.307Z,40.72
2024-05-09T02:49:08.397Z,40.70
2024-05-09T02:50:08.459Z,40.69
2024-05-09T02:51:08.290Z,40.68
2024-05-09T02:52:08.148Z,40.69
2024-05-09T02:53:08.872Z,40.69
2024-05-09T02:54:08.168Z,40.68
2024-05-09T02:55:08.136Z,40.66
2024-05-09T02:56:08.193Z,40.66
2024-05-09T02:57:08.197Z,40.68
2024-05-09T02:58:08.248Z,40.66
2024-05-09T02:59:08.256Z,40.68
2024-05-09T03:00:15.162Z,40.68
2024-05-09T03:01:08.398Z,40.66
2024-05-09T03:02:08.431Z,40.68
2024-05-09T03:03:09.576Z,40.67
2024-05-09T03:04:08.432Z,40.67
2024-05-09T03:05:08.406Z,40.66
2024-05-09T03:06:08.290Z,40.66
2024-05-09T03:07:08.308Z,40.67
2024-05-09T03:08:08.482Z,40.67
2024-05-09T03:09:08.302Z,40.65
2024-05-09T03:10:18.054Z,40.65
2024-05-09T03:11:08.458Z,40.66
2024-05-09T03:12:08.441Z,40.68
2024-05-09T03:13:08.679Z,40.66
2024-05-09T03:14:08.387Z,40.65
2024-05-09T03:15:08.315Z,40.64
2024-05-09T03:16:08.339Z,40.66
2024-05-09T03:17:08.456Z,40.64
2024-05-09T03:18:08.500Z,40.63
2024-05-09T03:19:08.396Z,40.63
2024-05-09T03:20:17.029Z,40.63
2024-05-09T03:21:08.481Z,40.64
2024-05-09T03:22:08.329Z,40.66
2024-05-09T03:23:09.501Z,40.64
2024-05-09T03:24:08.333Z,40.65
2024-05-09T03:25:08.339Z,40.63
2024-05-09T03:26:08.381Z,40.65
2024-05-09T03:27:08.365Z,40.64
2024-05-09T03:28:08.328Z,40.66
2024-05-09T03:29:08.477Z,40.64
2024-05-09T03:30:09.961Z,40.63
2024-05-09T03:31:08.608Z,40.64
2024-05-09T03:32:08.722Z,40.64
2024-05-09T03:33:08.967Z,40.62
2024-05-09T03:34:08.883Z,40.62
2024-05-09T03:35:08.868Z,40.61
2024-05-09T03:36:11.229Z,40.60
2024-05-09T03:37:08.945Z,40.62
2024-05-09T03:38:09.160Z,40.60
2024-05-09T03:39:08.952Z,40.63
2024-05-09T03:40:14.509Z,40.60
2024-05-09T03:41:09.001Z,40.60
2024-05-09T03:42:08.999Z,40.61
2024-05-09T03:43:08.962Z,40.61
2024-05-09T03:44:08.982Z,40.62
2024-05-09T03:45:08.956Z,40.62
2024-05-09T03:46:08.964Z,40.62
2024-05-09T03:47:09.025Z,40.60
2024-05-09T03:48:09.271Z,40.60
2024-05-09T03:49:09.230Z,40.57
2024-05-09T03:50:17.997Z,40.58
2024-05-09T03:51:09.202Z,40.62
2024-05-09T03:52:09.072Z,40.60
2024-05-09T03:53:09.099Z,40.60
2024-05-09T03:54:09.065Z,40.60
2024-05-09T03:55:09.067Z,40.60
2024-05-09T03:56:09.115Z,40.59
2024-05-09T03:57:09.074Z,40.60
2024-05-09T03:58:09.131Z,40.59
2024-05-09T03:59:09.078Z,40.57
2024-05-09T04:00:17.763Z,40.57
2024-05-09T04:01:09.116Z,40.59
2024-05-09T04:02:09.127Z,40.57
2024-05-09T04:03:11.412Z,40.57
2024-05-09T04:04:09.199Z,40.57
2024-05-09T04:05:09.111Z,40.55
2024-05-09T04:06:09.075Z,40.55
2024-05-09T04:07:09.143Z,40.56
2024-05-09T04:08:09.270Z,40.55
2024-05-09T04:09:09.107Z,40.53
2024-05-09T04:10:16.767Z,40.57
2024-05-09T04:11:09.213Z,40.56
2024-05-09T04:12:09.282Z,40.57
2024-05-09T04:13:09.117Z,40.56
2024-05-09T04:14:09.157Z,40.54
2024-05-09T04:15:12.844Z,40.55
2024-05-09T04:16:09.122Z,40.58
2024-05-09T04:17:09.191Z,40.57
2024-05-09T04:18:09.304Z,40.53
2024-05-09T04:19:09.266Z,40.54
2024-05-09T04:20:12.455Z,40.52
2024-05-09T04:21:09.325Z,40.52
2024-05-09T04:22:09.202Z,40.53
2024-05-09T04:23:09.673Z,40.52
2024-05-09T04:24:09.209Z,40.54
2024-05-09T04:25:09.198Z,40.53
2024-05-09T04:26:09.262Z,40.52
2024-05-09T04:27:09.213Z,40.53
2024-05-09T04:28:09.203Z,40.54
2024-05-09T04:29:09.292Z,40.52
2024-05-09T04:30:15.454Z,40.51
2024-05-09T04:31:09.218Z,40.51
2024-05-09T04:32:09.319Z,40.52
2024-05-09T04:33:11.537Z,40.53
2024-05-09T04:34:09.499Z,40.53
2024-05-09T04:35:09.273Z,40.50
2024-05-09T04:36:09.250Z,40.50
2024-05-09T04:37:09.257Z,40.51
2024-05-09T04:38:09.365Z,40.49
2024-05-09T04:39:09.272Z,40.50
2024-05-09T04:40:17.150Z,40.49
2024-05-09T04:41:09.308Z,40.48
2024-05-09T04:42:09.266Z,40.49
2024-05-09T04:43:09.266Z,40.48
2024-05-09T04:44:09.341Z,40.48
2024-05-09T04:45:16.588Z,40.54
2024-05-09T04:46:17.573Z,40.51
2024-05-09T04:47:17.773Z,40.52
2024-05-09T04:48:17.787Z,40.48
2024-05-09T04:49:17.771Z,40.51
2024-05-09T04:50:25.367Z,40.47
2024-05-09T04:51:17.604Z,40.48
2024-05-09T04:52:17.587Z,40.49
2024-05-09T04:53:17.940Z,40.49
2024-05-09T04:54:29.828Z,40.43
2024-05-09T04:55:17.600Z,40.46
2024-05-09T04:56:17.797Z,40.47
2024-05-09T04:57:17.594Z,40.47
2024-05-09T04:58:17.655Z,40.48
2024-05-09T04:59:17.712Z,40.44
2024-05-09T05:00:25.510Z,40.47
2024-05-09T05:01:17.641Z,40.47
2024-05-09T05:02:17.739Z,40.48
2024-05-09T05:03:18.012Z,40.46
2024-05-09T05:04:17.769Z,40.46
2024-05-09T05:05:17.706Z,40.45
2024-05-09T05:06:17.618Z,40.45
2024-05-09T05:07:17.612Z,40.43
2024-05-09T05:08:18.733Z,40.46
2024-05-09T05:09:17.644Z,40.43
2024-05-09T05:10:25.132Z,40.44
2024-05-09T05:11:17.750Z,40.45
2024-05-09T05:12:17.680Z,40.43
2024-05-09T05:13:18.719Z,40.44
2024-05-09T05:14:17.664Z,40.43
2024-05-09T05:15:17.634Z,40.45
2024-05-09T05:16:17.627Z,40.43
2024-05-09T05:17:17.667Z,40.42
2024-05-09T05:18:17.928Z,40.42
2024-05-09T05:19:17.940Z,40.40
2024-05-09T05:20:27.047Z,40.44
2024-05-09T05:21:17.796Z,40.43
2024-05-09T05:22:17.673Z,40.44
2024-05-09T05:23:17.671Z,40.43
2024-05-09T05:24:17.710Z,40.43
2024-05-09T05:25:17.718Z,40.43
2024-05-09T05:26:17.742Z,40.43
2024-05-09T05:27:17.706Z,40.43
2024-05-09T05:28:17.711Z,40.44
2024-05-09T05:29:20.721Z,40.46
2024-05-09T05:30:21.546Z,40.44
2024-05-09T05:31:17.758Z,40.49
2024-05-09T05:32:17.835Z,40.42
2024-05-09T05:33:17.784Z,40.43
2024-05-09T05:34:17.729Z,40.38
2024-05-09T05:35:17.794Z,40.42
2024-05-09T05:36:17.726Z,40.40
2024-05-09T05:37:17.733Z,40.44
2024-05-09T05:38:17.981Z,40.45
2024-05-09T05:39:17.770Z,40.43
2024-05-09T05:40:27.950Z,40.49
2024-05-09T05:41:17.840Z,40.50
2024-05-09T05:42:17.767Z,40.49
2024-05-09T05:43:17.868Z,40.50
2024-05-09T05:44:17.842Z,40.53
2024-05-09T05:45:17.795Z,40.55
2024-05-09T05:46:17.800Z,40.54
2024-05-09T05:47:17.866Z,40.55
2024-05-09T05:48:18.315Z,40.59
2024-05-09T05:49:17.880Z,40.52
2024-05-09T05:50:24.794Z,40.57
2024-05-09T05:51:17.860Z,40.56
2024-05-09T05:52:17.782Z,40.57
2024-05-09T05:53:17.861Z,40.58
2024-05-09T05:54:17.791Z,40.60
2024-05-09T05:55:17.789Z,40.57
2024-05-09T05:56:17.823Z,40.63
2024-05-09T05:57:17.795Z,40.61
2024-05-09T05:58:17.793Z,40.67
2024-05-09T05:59:17.837Z,40.66
2024-05-09T06:00:28.573Z,40.68
2024-05-09T06:01:17.825Z,40.68
2024-05-09T06:02:18.040Z,40.63
2024-05-09T06:03:17.862Z,40.67
2024-05-09T06:04:17.878Z,40.72
2024-05-09T06:05:17.887Z,40.73
2024-05-09T06:06:17.834Z,40.68
2024-05-09T06:07:17.810Z,40.68
2024-05-09T06:08:17.859Z,40.69
2024-05-09T06:09:17.822Z,40.64
2024-05-09T06:10:25.164Z,40.66
2024-05-09T06:11:18.016Z,40.64
2024-05-09T06:12:17.898Z,40.71
2024-05-09T06:13:17.834Z,40.71
2024-05-09T06:14:17.908Z,40.72
2024-05-09T06:15:17.881Z,40.70
2024-05-09T06:16:17.864Z,40.71
2024-05-09T06:17:17.978Z,40.72
2024-05-09T06:18:18.265Z,40.73
2024-05-09T06:19:17.960Z,40.75
2024-05-09T06:20:23.949Z,40.76
2024-05-09T06:21:18.075Z,40.73
2024-05-09T06:22:17.910Z,40.72
2024-05-09T06:23:17.950Z,40.73
2024-05-09T06:24:17.899Z,40.68
2024-05-09T06:25:17.927Z,40.70
2024-05-09T06:26:17.995Z,40.68
2024-05-09T06:27:17.911Z,40.68
2024-05-09T06:28:17.909Z,40.69
2024-05-09T06:29:17.939Z,40.73
2024-05-09T06:30:25.842Z,40.70
2024-05-09T06:31:17.922Z,40.73
2024-05-09T06:32:17.969Z,40.68
2024-05-09T06:33:18.235Z,40.70
2024-05-09T06:34:18.220Z,40.69
2024-05-09T06:35:17.949Z,40.71
2024-05-09T06:36:17.920Z,40.71
2024-05-09T06:37:17.971Z,40.67
2024-05-09T06:38:17.973Z,40.68
2024-05-09T06:39:17.919Z,40.71
2024-05-09T06:40:25.374Z,40.72
2024-05-09T06:41:17.967Z,40.68
2024-05-09T06:42:17.926Z,40.70
2024-05-09T06:43:19.450Z,40.71
2024-05-09T06:44:17.987Z,40.70
2024-05-09T06:45:17.970Z,40.72
2024-05-09T06:46:17.928Z,40.74
2024-05-09T06:47:18.072Z,40.72
2024-05-09T06:48:18.214Z,40.75
2024-05-09T06:49:18.101Z,40.73
2024-05-09T06:50:23.861Z,40.69
2024-05-09T06:51:18.065Z,40.70
2024-05-09T06:52:17.983Z,40.72
2024-05-09T06:53:18.106Z,40.70
2024-05-09T06:54:17.981Z,40.72
2024-05-09T06:55:18.004Z,40.69
2024-05-09T06:56:18.051Z,40.71
2024-05-09T06:57:17.985Z,40.74
2024-05-09T06:58:18.047Z,40.68
2024-05-09T06:59:18.043Z,40.71
2024-05-09T07:00:26.855Z,40.69
2024-05-09T07:01:18.059Z,40.70
2024-05-09T07:02:18.061Z,40.71
2024-05-09T07:03:19.344Z,40.69
2024-05-09T07:04:18.235Z,40.71
2024-05-09T07:05:18.058Z,40.71
2024-05-09T07:06:18.034Z,40.71
2024-05-09T07:07:18.002Z,40.76
2024-05-09T07:08:18.246Z,40.75
2024-05-09T07:09:18.020Z,40.76
2024-05-09T07:10:25.490Z,40.72
2024-05-09T07:11:18.118Z,40.75
2024-05-09T07:12:18.245Z,40.80
2024-05-09T07:13:18.139Z,40.76
2024-05-09T07:14:18.179Z,40.74
2024-05-09T07:15:18.042Z,40.72
2024-05-09T07:16:18.051Z,40.73
2024-05-09T07:17:18.189Z,40.67
2024-05-09T07:18:19.180Z,40.72
2024-05-09T07:19:18.156Z,40.73
2024-05-09T07:20:23.702Z,40.74
2024-05-09T07:21:18.145Z,40.73
2024-05-09T07:22:18.022Z,40.71
2024-05-09T07:23:18.208Z,40.74
2024-05-09T07:24:18.055Z,40.71
2024-05-09T07:25:18.077Z,40.71
2024-05-09T07:26:18.145Z,40.71
2024-05-09T07:27:18.113Z,40.69
2024-05-09T07:28:18.181Z,40.68
2024-05-09T07:29:18.159Z,40.70
2024-05-09T07:30:23.797Z,40.69
2024-05-09T07:31:18.075Z,40.74
2024-05-09T07:32:18.146Z,40.71
2024-05-09T07:33:18.587Z,40.69
2024-05-09T07:34:18.160Z,40.69
2024-05-09T07:35:18.152Z,40.70
2024-05-09T07:36:18.084Z,40.70
2024-05-09T07:37:18.077Z,40.69
2024-05-09T07:38:18.189Z,40.69
2024-05-09T07:39:18.112Z,40.67
2024-05-09T07:40:28.406Z,40.72
2024-05-09T07:41:18.170Z,40.72
2024-05-09T07:42:18.106Z,40.69
2024-05-09T07:43:18.130Z,40.70
2024-05-09T07:44:18.146Z,40.64
2024-05-09T07:47:14.194Z,40.71
2024-05-09T07:48:29.018Z,40.67
2024-05-09T07:50:56.140Z,40.67
2024-05-09T07:53:29.998Z,40.63
2024-05-09T07:53:38.182Z,40.62
2024-05-09T07:54:18.543Z,40.63
2024-05-09T07:55:18.336Z,40.65
2024-05-09T07:56:19.378Z,40.66
2024-05-09T07:57:18.290Z,40.67
2024-05-09T07:58:18.130Z,40.62
2024-05-09T07:59:18.129Z,40.62
2024-05-09T08:00:23.784Z,40.59
2024-05-09T08:01:18.349Z,40.66
2024-05-09T08:02:18.272Z,40.64
2024-05-09T08:03:18.366Z,40.59
2024-05-09T08:04:18.277Z,40.65
2024-05-09T08:05:18.232Z,40.62
2024-05-09T08:06:18.190Z,40.62
2024-05-09T08:07:18.314Z,40.70
2024-05-09T08:08:18.191Z,40.61
2024-05-09T08:09:21.219Z,40.68
2024-05-09T08:10:22.228Z,40.69
2024-05-09T08:11:18.218Z,40.74
2024-05-09T08:12:18.213Z,40.73
2024-05-09T08:13:18.347Z,40.68
2024-05-09T08:14:18.241Z,40.73
2024-05-09T08:15:18.241Z,40.69
2024-05-09T08:16:18.257Z,40.67
2024-05-09T08:17:18.280Z,40.66
2024-05-09T08:18:18.371Z,40.63
2024-05-09T08:19:18.323Z,40.63
2024-05-09T08:20:26.838Z,40.61
2024-05-09T08:21:18.230Z,40.65
2024-05-09T08:22:18.282Z,40.70
2024-05-09T08:23:18.275Z,40.73
2024-05-09T08:24:18.223Z,40.72
2024-05-09T08:25:18.342Z,40.70
2024-05-09T08:26:18.274Z,40.68
2024-05-09T08:27:18.342Z,40.66
2024-05-09T08:28:18.391Z,40.67
2024-05-09T08:29:18.307Z,40.72
2024-05-09T08:30:24.874Z,40.77
2024-05-09T08:31:18.394Z,40.80
2024-05-09T08:32:18.345Z,40.74
2024-05-09T08:33:18.550Z,40.75
2024-05-09T08:34:18.469Z,40.71
2024-05-09T08:35:18.328Z,40.69
2024-05-09T08:36:18.338Z,40.74
2024-05-09T08:37:41.231Z,40.75
2024-05-09T08:38:41.957Z,40.72
2024-05-09T08:39:41.980Z,40.72
2024-05-09T08:40:42.209Z,40.75
2024-05-09T08:41:41.976Z,40.75
2024-05-09T08:42:42.059Z,40.70
2024-05-09T08:43:42.201Z,40.74
2024-05-09T08:44:41.984Z,40.77
2024-05-09T08:45:42.614Z,40.68
2024-05-09T08:46:41.974Z,40.67
2024-05-09T08:47:42.066Z,40.60
2024-05-09T08:48:42.166Z,40.59
2024-05-09T08:49:42.051Z,40.58
2024-05-09T08:50:42.228Z,40.55
2024-05-09T08:51:42.021Z,40.58
2024-05-09T08:52:42.005Z,40.58
2024-05-09T08:53:41.972Z,40.55
2024-05-09T08:54:42.023Z,40.56
2024-05-09T08:55:43.630Z,40.57
2024-05-09T08:56:41.977Z,40.58
2024-05-09T08:57:42.001Z,40.63
2024-05-09T08:58:41.985Z,40.67
2024-05-09T08:59:41.983Z,40.70
2024-05-09T09:00:42.317Z,40.72
2024-05-09T09:01:42.059Z,40.75
2024-05-09T09:02:42.060Z,40.72
2024-05-09T09:03:42.115Z,40.75
2024-05-09T09:04:42.056Z,40.75
2024-05-09T09:05:42.086Z,40.76
2024-05-09T09:06:42.045Z,40.76
2024-05-09T09:07:41.991Z,40.74
2024-05-09T09:08:41.993Z,40.71
2024-05-09T09:09:42.058Z,40.71
2024-05-09T09:10:42.210Z,40.71
2024-05-09T09:11:42.057Z,40.71
2024-05-09T09:12:42.010Z,40.68
2024-05-09T09:13:41.997Z,40.66
2024-05-09T09:14:41.999Z,40.63
2024-05-09T09:15:42.031Z,40.63
2024-05-09T09:16:42.010Z,40.58
2024-05-09T09:17:42.049Z,40.57
2024-05-09T09:18:42.197Z,40.60
2024-05-09T09:19:42.082Z,40.58
2024-05-09T09:20:42.188Z,40.52
2024-05-09T09:21:42.265Z,40.51
2024-05-09T09:22:42.317Z,40.49
2024-05-09T09:23:42.422Z,40.51
2024-05-09T09:24:42.551Z,40.51
2024-05-09T09:25:42.627Z,40.48
2024-05-09T09:26:42.722Z,40.47
2024-05-09T09:27:42.876Z,40.46
2024-05-09T09:28:42.916Z,40.45
2024-05-09T09:29:43.019Z,40.41
2024-05-09T09:30:43.348Z,40.40
2024-05-09T09:31:43.224Z,40.38
2024-05-09T09:32:43.461Z,40.36
2024-05-09T09:33:43.655Z,40.36
2024-05-09T09:34:43.571Z,40.36
2024-05-09T09:35:43.639Z,40.37
2024-05-09T09:36:43.878Z,40.39
2024-05-09T09:37:43.835Z,40.38
2024-05-09T09:38:43.987Z,40.38
2024-05-09T09:39:48.758Z,40.34
2024-05-09T09:40:48.594Z,40.34
2024-05-09T09:41:44.052Z,40.34
2024-05-09T09:42:44.096Z,40.32
2024-05-09T09:43:44.043Z,40.32
2024-05-09T09:44:47.922Z,40.33
2024-05-09T09:45:44.271Z,40.32
2024-05-09T09:46:44.057Z,40.30
2024-05-09T09:47:44.275Z,40.32
2024-05-09T09:48:44.276Z,40.30
2024-05-09T09:49:44.272Z,40.30
2024-05-09T09:50:44.080Z,40.29
2024-05-09T09:51:44.153Z,40.29
2024-05-09T09:52:44.077Z,40.25
2024-05-09T09:53:44.088Z,40.27
2024-05-09T09:54:44.135Z,40.26
2024-05-09T09:55:44.055Z,40.28
2024-05-09T09:56:44.060Z,40.27
2024-05-09T09:57:44.121Z,40.28
2024-05-09T09:58:44.129Z,40.26
2024-05-09T09:59:44.071Z,40.28
2024-05-09T10:00:44.501Z,40.25
2024-05-09T10:01:44.162Z,40.24
2024-05-09T10:02:44.084Z,40.24
2024-05-09T10:03:44.201Z,40.22
2024-05-09T10:04:44.282Z,40.22
2024-05-09T10:05:46.515Z,40.24
2024-05-09T10:06:44.192Z,40.26
2024-05-09T10:07:44.166Z,40.25
2024-05-09T10:08:44.167Z,40.29
2024-05-09T10:09:44.228Z,40.28
2024-05-09T10:10:44.451Z,40.25
2024-05-09T10:11:49.177Z,40.22
2024-05-09T10:12:44.184Z,40.21
2024-05-09T10:13:44.176Z,40.21
2024-05-09T10:14:44.164Z,40.20
2024-05-09T10:15:44.203Z,40.18
2024-05-09T10:16:44.172Z,40.19
2024-05-09T10:17:44.320Z,40.19
2024-05-09T10:18:44.377Z,40.18
2024-05-09T10:19:44.275Z,40.21
2024-05-09T10:20:44.386Z,40.18
2024-05-09T10:21:44.237Z,40.19
2024-05-09T10:22:44.188Z,40.16
2024-05-09T10:23:44.233Z,40.19
2024-05-09T10:24:44.211Z,40.18
2024-05-09T10:25:44.198Z,40.18
2024-05-09T10:26:44.192Z,40.20
2024-05-09T10:27:44.208Z,40.17
2024-05-09T10:28:44.194Z,40.15
2024-05-09T10:29:44.192Z,40.15
2024-05-09T10:30:45.669Z,40.16
2024-05-09T10:31:44.332Z,40.18
2024-05-09T10:32:44.293Z,40.18
2024-05-09T10:33:44.492Z,40.14
2024-05-09T10:34:44.278Z,40.15
2024-05-09T10:35:44.217Z,40.12
2024-05-09T10:36:44.276Z,40.11
2024-05-09T10:37:44.219Z,40.09
2024-05-09T10:38:44.219Z,40.10
2024-05-09T10:39:44.255Z,40.06
2024-05-09T10:40:44.296Z,40.08
2024-05-09T10:41:44.235Z,40.05
2024-05-09T10:42:44.280Z,40.05
2024-05-09T10:43:44.264Z,40.00
2024-05-09T10:44:44.237Z,39.95
2024-05-09T10:45:44.260Z,39.93
2024-05-09T10:46:44.264Z,39.93
2024-05-09T10:47:44.381Z,39.95
2024-05-09T10:48:44.697Z,39.93
2024-05-09T10:49:44.393Z,39.92
2024-05-09T10:50:44.232Z,39.93
2024-05-09T10:51:44.375Z,39.94
2024-05-09T10:52:44.269Z,39.91
2024-05-09T10:53:44.265Z,39.93
2024-05-09T10:54:44.270Z,39.92
2024-05-09T10:55:44.237Z,39.91
2024-05-09T10:56:44.240Z,39.92
2024-05-09T10:57:44.333Z,39.91
2024-05-09T10:58:44.295Z,39.90
2024-05-09T10:59:44.343Z,39.91
2024-05-09T11:00:44.538Z,39.87
2024-05-09T11:01:44.837Z,39.88
2024-05-09T11:02:44.736Z,39.87
2024-05-09T11:03:45.013Z,39.89
2024-05-09T11:04:45.005Z,39.88
2024-05-09T11:05:45.112Z,39.90
2024-05-09T11:06:45.111Z,39.88
2024-05-09T11:07:45.164Z,39.89
2024-05-09T11:08:45.263Z,39.90
2024-05-09T11:09:45.405Z,39.89
2024-05-09T11:10:45.599Z,39.91
2024-05-09T11:11:45.560Z,39.93
2024-05-09T11:12:45.659Z,39.94
2024-05-09T11:13:45.714Z,39.98
2024-05-09T11:14:45.803Z,40.01
2024-05-09T11:15:45.978Z,40.01
2024-05-09T11:16:46.021Z,40.00
2024-05-09T11:17:46.190Z,40.06
2024-05-09T11:18:46.272Z,40.05
2024-05-09T11:19:46.383Z,40.05
2024-05-09T11:20:46.458Z,40.06
2024-05-09T11:21:46.549Z,40.10
2024-05-09T11:22:46.626Z,40.11
2024-05-09T11:23:46.752Z,40.08
2024-05-09T11:24:46.854Z,40.11
2024-05-09T11:25:46.910Z,40.14
2024-05-09T11:26:47.007Z,40.17
2024-05-09T11:27:47.165Z,40.19
2024-05-09T11:28:47.202Z,40.21
2024-05-09T11:29:47.305Z,40.22
2024-05-09T11:30:47.421Z,40.22
2024-05-09T11:31:47.686Z,40.21
2024-05-09T11:32:47.760Z,40.22
2024-05-09T11:33:47.924Z,40.22
2024-05-09T11:34:47.808Z,40.24
2024-05-09T11:35:47.916Z,40.23
2024-05-09T11:36:48.039Z,40.23
2024-05-09T11:37:48.120Z,40.22
2024-05-09T11:38:48.212Z,40.22
2024-05-09T11:39:48.571Z,40.15
2024-05-09T11:40:48.449Z,40.14
2024-05-09T11:41:48.516Z,40.10
2024-05-09T11:42:51.552Z,40.10
2024-05-09T11:43:48.661Z,40.07
2024-05-09T11:44:48.678Z,40.04
2024-05-09T11:45:48.754Z,40.03
2024-05-09T11:46:48.758Z,40.02
2024-05-09T11:47:48.847Z,40.02
2024-05-09T11:48:49.099Z,40.02
2024-05-09T11:49:48.867Z,40.01
2024-05-09T11:50:48.941Z,40.00
2024-05-09T11:51:49.063Z,40.03
2024-05-09T11:52:49.128Z,40.00
2024-05-09T11:53:49.225Z,39.97
2024-05-09T11:54:49.358Z,39.98
2024-05-09T11:55:49.437Z,39.94
2024-05-09T11:56:49.509Z,39.95
2024-05-09T11:57:49.665Z,39.90
2024-05-09T11:58:49.706Z,39.89
2024-05-09T11:59:49.807Z,39.88
2024-05-09T12:00:50.139Z,39.87
2024-05-09T12:01:50.168Z,39.86
2024-05-09T12:02:50.199Z,39.83
2024-05-09T12:03:50.437Z,39.80
2024-05-09T12:04:50.413Z,39.79
2024-05-09T12:05:50.510Z,39.79
2024-05-09T12:06:50.536Z,39.76
2024-05-09T12:07:50.598Z,39.73
2024-05-09T12:08:50.710Z,39.71
2024-05-09T12:09:50.852Z,39.68
2024-05-09T12:10:51.107Z,39.70
2024-05-09T12:11:51.023Z,39.68
2024-05-09T12:12:51.173Z,39.65
2024-05-09T12:13:51.200Z,39.64
2024-05-09T12:14:51.282Z,39.67
2024-05-09T12:15:51.462Z,39.67
2024-05-09T12:16:51.499Z,39.70
2024-05-09T12:17:51.696Z,39.70
2024-05-09T12:18:51.830Z,39.70
2024-05-09T12:19:51.786Z,39.70
2024-05-09T12:20:51.887Z,39.72
2024-05-09T12:21:52.077Z,39.72
2024-05-09T12:22:52.085Z,39.71
2024-05-09T12:23:52.178Z,39.70
2024-05-09T12:24:52.343Z,39.69
2024-05-09T12:25:52.382Z,39.71
2024-05-09T12:26:52.478Z,39.73
2024-05-09T12:27:52.668Z,39.70
2024-05-09T12:28:52.696Z,39.67
2024-05-09T12:29:52.785Z,39.65
2024-05-09T12:30:52.945Z,39.60
2024-05-09T12:31:53.070Z,39.55
2024-05-09T12:32:53.358Z,39.56
2024-05-09T12:33:53.289Z,39.57
2024-05-09T12:34:53.289Z,39.57
2024-05-09T12:35:53.383Z,39.55
2024-05-09T12:36:53.540Z,39.51
2024-05-09T12:37:53.582Z,39.50
2024-05-09T12:38:53.665Z,39.46
2024-05-09T12:39:53.937Z,39.50
2024-05-09T12:40:54.145Z,39.48
2024-05-09T12:41:53.919Z,39.50
2024-05-09T12:42:54.096Z,39.49
2024-05-09T12:43:54.073Z,39.46
2024-05-09T12:44:54.030Z,39.48
2024-05-09T12:45:54.105Z,39.51
2024-05-09T12:46:54.115Z,39.50
2024-05-09T12:47:54.218Z,39.48
2024-05-09T12:48:54.619Z,39.48
2024-05-09T12:49:54.364Z,39.48
2024-05-09T12:50:54.413Z,39.49
2024-05-09T12:51:54.415Z,39.49
2024-05-09T12:52:54.432Z,39.52
2024-05-09T12:53:54.484Z,39.51
2024-05-09T12:54:54.829Z,39.52
2024-05-09T12:55:59.891Z,39.49
2024-05-09T12:56:54.604Z,39.54